This is the latest recevied weather packets stored in our database for station/object OK0EK-12. If no packets are shown the sender has not sent any weather packets the latest 10 day(s).
| Time | Temp. | Humidity | Pressure | Rain* | Wind** | Luminosity | Snow |
|---|---|---|---|---|---|---|---|
| 1777585484 | 3.33° C | 66% | 1108.2 hPa | - | - | - | - |
| 1777584886 | 3.33° C | 65% | 1108.2 hPa | - | - | - | - |
| 1777584281 | 3.33° C | 65% | 1108.2 hPa | - | - | - | - |
| 1777583681 | 3.33° C | 66% | 1108.1 hPa | - | - | - | - |
| 1777583082 | 3.33° C | 66% | 1107.9 hPa | - | - | - | - |
| 1777582481 | 3.33° C | 65% | 1107.9 hPa | - | - | - | - |
| 1777581881 | 3.89° C | 64% | 1107.8 hPa | - | - | - | - |
| 1777581281 | 3.89° C | 63% | 1107.7 hPa | - | - | - | - |
| 1777580680 | 3.89° C | 64% | 1107.8 hPa | - | - | - | - |
| 1777580080 | 3.89° C | 66% | 1107.8 hPa | - | - | - | - |
| 1777579482 | 4.44° C | 64% | 1107.9 hPa | - | - | - | - |
| 1777578884 | 5° C | 63% | 1107.8 hPa | - | - | - | - |
| 1777578286 | 5.56° C | 61% | 1107.7 hPa | - | - | - | - |
| 1777577688 | 6.67° C | 54% | 1107.6 hPa | - | - | - | - |
| 1777577090 | 6.67° C | 54% | 1107.6 hPa | - | - | - | - |
| 1777576491 | 7.22° C | 53% | 1107.4 hPa | - | - | - | - |
| 1777575895 | 8.33° C | 45% | 1107.3 hPa | - | - | - | - |
| 1777575296 | 8.33° C | 43% | 1107.3 hPa | - | - | - | - |
| 1777574695 | 8.89° C | 42% | 1107.2 hPa | - | - | - | - |
| 1777574102 | 9.44° C | 40% | 1107.2 hPa | - | - | - | - |
| 1777573494 | 10° C | 40% | 1107.1 hPa | - | - | - | - |
| 1777572893 | 10° C | 39% | 1107 hPa | - | - | - | - |
| 1777572292 | 10.56° C | 38% | 1107 hPa | - | - | - | - |
| 1777571691 | 11.11° C | 37% | 1106.8 hPa | - | - | - | - |
| 1777571091 | 11.11° C | 35% | 1106.8 hPa | - | - | - | - |
* Rain since midnight (hover to see other rain measurements)
** Current wind speed in m/s (hover to see current wind gust speed)